Time;durP1;ratioP1;P1;durP2;ratioP2;P2;SDS_P1;SDS_P2;PMS_P1;PMS_P2;Temp;Humidity;BMP_temperature;BMP_pressure;BME280_temperature;BME280_humidity;BME280_pressure;Samples;Min_cycle;Max_cycle;Signal;HPM_P1;HPM_P2
2022/01/15 00:01:30;;;;;;;;;;;21.50;76.20;;;;;;4980347;28;95852;-58
2022/01/15 00:04:00;;;;;;;;;;;21.60;76.20;;;;;;4986770;28;95258;-59
2022/01/15 00:06:30;;;;;;;;;;;21.60;76.10;;;;;;4985658;28;96502;-58
2022/01/15 00:09:01;;;;;;;;;;;21.60;76.10;;;;;;4984513;28;96487;-60
2022/01/15 00:11:31;;;;;;;;;;;21.60;75.90;;;;;;4988009;28;96695;-64
2022/01/15 00:14:12;;;;;;;;;;;21.60;76.00;;;;;;4991625;28;95897;-60
2022/01/15 00:16:49;;;;;;;;;;;21.60;75.90;;;;;;4982089;28;97068;-64
2022/01/15 00:19:21;;;;;;;;;;;21.60;75.80;;;;;;4985108;28;95710;-57
2022/01/15 00:21:52;;;;;;;;;;;21.60;75.80;;;;;;5004136;28;95607;-59
2022/01/15 00:24:24;;;;;;;;;;;21.60;75.70;;;;;;5004379;28;96169;-58
2022/01/15 00:26:56;;;;;;;;;;;21.60;75.70;;;;;;5003964;28;96133;-59
2022/01/15 00:29:29;;;;;;;;;;;21.60;75.80;;;;;;5006039;28;95829;-59
2022/01/15 00:31:59;;;;;;;;;;;21.70;75.70;;;;;;4976515;28;95875;-64
2022/01/15 00:34:29;;;;;;;;;;;21.60;75.70;;;;;;4990141;28;95215;-59
2022/01/15 00:36:58;;;;;;;;;;;21.70;75.60;;;;;;4990577;28;96105;-59
2022/01/15 00:39:28;;;;;;;;;;;21.70;75.60;;;;;;4983474;28;96013;-65
2022/01/15 00:41:59;;;;;;;;;;;21.70;75.60;;;;;;4964557;28;96142;-59
2022/01/15 00:44:29;;;;;;;;;;;21.70;75.60;;;;;;5005265;28;96092;-59
2022/01/15 00:47:00;;;;;;;;;;;21.70;75.60;;;;;;4983613;28;96563;-59
2022/01/15 00:49:30;;;;;;;;;;;21.70;75.50;;;;;;4984541;28;95568;-59
2022/01/15 00:52:01;;;;;;;;;;;21.70;75.60;;;;;;4988317;28;96149;-56
2022/01/15 00:54:31;;;;;;;;;;;21.70;75.50;;;;;;4982160;28;95320;-59
2022/01/15 00:57:02;;;;;;;;;;;21.70;75.40;;;;;;4971487;28;96894;-64
2022/01/15 00:59:32;;;;;;;;;;;21.70;75.30;;;;;;4980016;28;96552;-58
2022/01/15 01:02:03;;;;;;;;;;;21.70;75.40;;;;;;4981461;28;95881;-57
2022/01/15 01:04:34;;;;;;;;;;;21.70;75.40;;;;;;4988233;28;96460;-63
2022/01/15 01:07:06;;;;;;;;;;;21.70;75.30;;;;;;4957603;28;98916;-67
2022/01/15 01:23:38;;;;;;;;;;;21.90;75.00;;;;;;4983404;28;96727;-57
2022/01/15 01:26:32;;;;;;;;;;;21.90;74.90;;;;;;4985239;28;95779;-58
2022/01/15 01:32:06;;;;;;;;;;;22.00;74.90;;;;;;4937450;28;97097;-59
2022/01/15 01:34:39;;;;;;;;;;;22.10;74.80;;;;;;4986512;28;95838;-57
2022/01/15 01:44:41;;;;;;;;;;;22.40;74.80;;;;;;4986766;28;95924;-61
2022/01/15 01:47:24;;;;;;;;;;;22.40;74.60;;;;;;4983018;28;96181;-61
2022/01/15 01:49:54;;;;;;;;;;;22.50;74.60;;;;;;4985022;28;96562;-61
2022/01/15 01:52:25;;;;;;;;;;;22.60;74.70;;;;;;4968225;28;95783;-60
2022/01/15 01:54:56;;;;;;;;;;;22.70;75.30;;;;;;4985304;28;95939;-57
2022/01/15 01:57:27;;;;;;;;;;;22.70;74.60;;;;;;4995812;28;96718;-60
2022/01/15 01:59:57;;;;;;;;;;;22.80;74.70;;;;;;4975644;28;96813;-59
2022/01/15 02:02:29;;;;;;;;;;;22.90;74.60;;;;;;4995728;28;98652;-61
2022/01/15 02:05:01;;;;;;;;;;;22.90;74.50;;;;;;4983741;28;96000;-66
2022/01/15 02:07:32;;;;;;;;;;;23.00;74.40;;;;;;4986352;28;95988;-60
2022/01/15 02:10:04;;;;;;;;;;;23.00;74.30;;;;;;4977032;28;97036;-59
2022/01/15 02:12:35;;;;;;;;;;;23.00;73.90;;;;;;4966924;28;95484;-57
2022/01/15 02:15:07;;;;;;;;;;;23.00;73.80;;;;;;5000226;28;98575;-63
2022/01/15 02:17:41;;;;;;;;;;;23.00;73.70;;;;;;4981563;28;95867;-60
2022/01/15 02:25:47;;;;;;;;;;;22.90;73.50;;;;;;4993849;28;95725;-56
2022/01/15 02:28:24;;;;;;;;;;;23.00;73.50;;;;;;5000160;28;96261;-57
2022/01/15 02:31:00;;;;;;;;;;;23.00;73.50;;;;;;4976712;28;96112;-63
2022/01/15 02:33:32;;;;;;;;;;;23.00;73.50;;;;;;4983173;28;95798;-53
2022/01/15 02:36:03;;;;;;;;;;;23.10;74.00;;;;;;4983674;28;96375;-58
2022/01/15 02:38:38;;;;;;;;;;;23.10;73.90;;;;;;4983374;28;96154;-58
2022/01/15 02:41:09;;;;;;;;;;;23.10;73.90;;;;;;4976267;28;96753;-59
2022/01/15 02:43:47;;;;;;;;;;;23.20;73.90;;;;;;4984324;28;96331;-56
2022/01/15 02:49:00;;;;;;;;;;;23.30;72.30;;;;;;4986999;28;95674;-57
2022/01/15 02:51:40;;;;;;;;;;;23.20;73.80;;;;;;4984011;28;96372;-58
2022/01/15 02:54:15;;;;;;;;;;;23.30;73.90;;;;;;4982227;28;96532;-63
2022/01/15 02:56:49;;;;;;;;;;;23.30;73.90;;;;;;4987672;28;95508;-55
2022/01/15 03:02:25;;;;;;;;;;;23.30;72.30;;;;;;4975856;28;98774;-55
2022/01/15 03:05:00;;;;;;;;;;;23.20;71.40;;;;;;4964411;28;95937;-54
2022/01/15 03:07:37;;;;;;;;;;;23.10;70.90;;;;;;4984404;28;99393;-56
2022/01/15 03:10:13;;;;;;;;;;;23.10;70.50;;;;;;4966098;28;95952;-53
2022/01/15 03:12:46;;;;;;;;;;;23.10;70.20;;;;;;4982789;28;96591;-59
2022/01/15 03:15:19;;;;;;;;;;;23.10;69.90;;;;;;4984328;28;95596;-57
2022/01/15 03:17:53;;;;;;;;;;;23.00;69.70;;;;;;4995517;28;95882;-56
2022/01/15 03:20:24;;;;;;;;;;;23.00;68.90;;;;;;4985723;28;95763;-55
2022/01/15 03:22:56;;;;;;;;;;;23.00;68.40;;;;;;4999589;28;97156;-57
2022/01/15 03:25:26;;;;;;;;;;;22.90;68.20;;;;;;4967367;28;95947;-55
2022/01/15 03:27:56;;;;;;;;;;;23.00;67.90;;;;;;4999163;28;95233;-61
2022/01/15 03:30:25;;;;;;;;;;;22.90;67.50;;;;;;4980262;28;95363;-56
2022/01/15 03:32:54;;;;;;;;;;;22.90;67.20;;;;;;4987468;28;96185;-56
2022/01/15 03:35:24;;;;;;;;;;;22.90;66.90;;;;;;4985842;28;95498;-55
2022/01/15 03:37:53;;;;;;;;;;;22.90;66.50;;;;;;4986190;28;95781;-63
2022/01/15 03:40:25;;;;;;;;;;;22.90;66.50;;;;;;4987253;28;95739;-60
2022/01/15 03:42:55;;;;;;;;;;;22.90;66.00;;;;;;4987035;28;96154;-62
2022/01/15 03:45:26;;;;;;;;;;;22.90;66.00;;;;;;4984076;28;95718;-56
2022/01/15 03:47:57;;;;;;;;;;;22.90;65.30;;;;;;4988737;28;95655;-62
2022/01/15 03:50:27;;;;;;;;;;;22.80;64.90;;;;;;4992112;28;95831;-63
2022/01/15 03:52:58;;;;;;;;;;;22.80;64.90;;;;;;4993448;28;96476;-55
2022/01/15 03:55:29;;;;;;;;;;;22.80;64.70;;;;;;4990328;28;95548;-54
2022/01/15 03:58:00;;;;;;;;;;;22.80;65.00;;;;;;4990961;28;95542;-56
2022/01/15 04:00:31;;;;;;;;;;;22.80;65.50;;;;;;4966558;28;95290;-55
2022/01/15 04:03:03;;;;;;;;;;;22.80;65.60;;;;;;4989860;28;103522;-55
2022/01/15 04:05:33;;;;;;;;;;;22.80;65.80;;;;;;4993249;28;96402;-56
2022/01/15 04:08:03;;;;;;;;;;;22.90;66.00;;;;;;4990453;28;95709;-62
2022/01/15 04:10:34;;;;;;;;;;;22.90;66.20;;;;;;4993801;28;100626;-58
2022/01/15 04:13:05;;;;;;;;;;;22.90;66.10;;;;;;4978088;28;96665;-54
2022/01/15 04:15:35;;;;;;;;;;;22.90;66.30;;;;;;4983085;28;96092;-63
2022/01/15 04:18:05;;;;;;;;;;;22.90;66.40;;;;;;4990513;28;98015;-57
2022/01/15 04:20:36;;;;;;;;;;;22.90;66.50;;;;;;4996842;28;95986;-57
2022/01/15 04:23:06;;;;;;;;;;;22.90;66.50;;;;;;4996161;28;96516;-53
2022/01/15 04:25:37;;;;;;;;;;;22.90;66.70;;;;;;4995749;28;95806;-54
2022/01/15 04:28:11;;;;;;;;;;;23.00;67.10;;;;;;4991661;28;95272;-54
2022/01/15 04:30:46;;;;;;;;;;;23.00;67.10;;;;;;4989984;28;95889;-56
2022/01/15 04:33:16;;;;;;;;;;;23.00;67.20;;;;;;4991437;28;96195;-55
2022/01/15 04:35:46;;;;;;;;;;;23.00;67.30;;;;;;4990669;28;98045;-54
2022/01/15 04:38:16;;;;;;;;;;;23.00;67.50;;;;;;4991888;28;95775;-58
2022/01/15 04:40:45;;;;;;;;;;;23.10;67.60;;;;;;4993049;28;95565;-63
2022/01/15 04:43:15;;;;;;;;;;;23.10;67.70;;;;;;5005582;28;96900;-62
2022/01/15 04:45:46;;;;;;;;;;;23.10;67.80;;;;;;4989583;28;98761;-57
2022/01/15 04:48:15;;;;;;;;;;;23.10;67.80;;;;;;4990905;28;95741;-54
2022/01/15 04:50:45;;;;;;;;;;;23.10;67.80;;;;;;4990834;28;95395;-57
2022/01/15 04:53:15;;;;;;;;;;;23.10;67.90;;;;;;5004582;28;97000;-64
2022/01/15 04:55:46;;;;;;;;;;;23.10;68.10;;;;;;4995460;28;95971;-55
2022/01/15 04:58:23;;;;;;;;;;;23.20;68.30;;;;;;4991344;28;95832;-64
2022/01/15 05:00:54;;;;;;;;;;;23.20;68.20;;;;;;4985855;28;97493;-52
2022/01/15 05:03:25;;;;;;;;;;;23.20;68.30;;;;;;4994092;28;96877;-62
2022/01/15 05:05:55;;;;;;;;;;;23.20;68.30;;;;;;4989497;28;95820;-53
2022/01/15 05:08:27;;;;;;;;;;;23.20;68.40;;;;;;4984842;28;95881;-54
2022/01/15 05:10:59;;;;;;;;;;;23.20;68.50;;;;;;4982538;28;95900;-63
2022/01/15 05:13:33;;;;;;;;;;;23.30;68.70;;;;;;4990642;28;96030;-57
2022/01/15 05:16:04;;;;;;;;;;;23.30;68.60;;;;;;4984807;28;96409;-58
2022/01/15 05:18:35;;;;;;;;;;;23.30;68.70;;;;;;4976822;28;96420;-56
2022/01/15 05:21:06;;;;;;;;;;;23.30;68.80;;;;;;4984931;28;95703;-53
2022/01/15 05:23:36;;;;;;;;;;;23.30;68.80;;;;;;4990035;28;96570;-63
2022/01/15 05:26:07;;;;;;;;;;;23.30;68.90;;;;;;4988427;28;96006;-53
2022/01/15 05:28:38;;;;;;;;;;;23.40;69.00;;;;;;4989558;28;95473;-64
2022/01/15 05:31:09;;;;;;;;;;;23.40;69.10;;;;;;4982876;28;95480;-52
2022/01/15 05:33:38;;;;;;;;;;;23.40;69.20;;;;;;4989569;28;96022;-49
2022/01/15 05:36:07;;;;;;;;;;;23.30;69.30;;;;;;4996823;28;97762;-54
2022/01/15 05:38:37;;;;;;;;;;;23.40;69.30;;;;;;4990620;28;95678;-52
2022/01/15 05:41:07;;;;;;;;;;;23.40;69.30;;;;;;4971562;28;96051;-48
2022/01/15 05:43:39;;;;;;;;;;;23.40;69.50;;;;;;4988211;28;96070;-52
2022/01/15 05:46:09;;;;;;;;;;;23.40;69.50;;;;;;4976812;28;95993;-61
2022/01/15 05:48:39;;;;;;;;;;;23.40;69.50;;;;;;4989907;28;96034;-52
2022/01/15 05:51:10;;;;;;;;;;;23.40;69.60;;;;;;4967049;28;95907;-59
2022/01/15 05:53:40;;;;;;;;;;;23.40;69.80;;;;;;4990156;28;97016;-49
2022/01/15 05:56:11;;;;;;;;;;;23.50;69.80;;;;;;4990270;28;95664;-52
2022/01/15 05:58:41;;;;;;;;;;;23.50;69.80;;;;;;4970859;28;96232;-49
2022/01/15 06:01:12;;;;;;;;;;;23.50;69.80;;;;;;4995575;28;98546;-52
2022/01/15 06:03:43;;;;;;;;;;;23.50;69.90;;;;;;4990114;28;96413;-52
2022/01/15 06:06:13;;;;;;;;;;;23.50;69.90;;;;;;4989091;28;96171;-50
2022/01/15 06:08:44;;;;;;;;;;;23.50;70.10;;;;;;5003817;28;95795;-60
2022/01/15 06:11:18;;;;;;;;;;;23.50;70.00;;;;;;4972010;28;96316;-53
2022/01/15 06:13:48;;;;;;;;;;;23.50;70.10;;;;;;4971143;28;96531;-53
2022/01/15 06:16:17;;;;;;;;;;;23.50;68.40;;;;;;4979810;28;95872;-50
2022/01/15 06:18:47;;;;;;;;;;;23.50;70.10;;;;;;4989343;28;95969;-54
2022/01/15 06:21:17;;;;;;;;;;;23.50;70.10;;;;;;4994542;28;95378;-60
2022/01/15 06:23:48;;;;;;;;;;;23.60;70.20;;;;;;4998232;28;96690;-52
2022/01/15 06:26:18;;;;;;;;;;;23.60;70.20;;;;;;4989183;28;95865;-49
2022/01/15 06:28:49;;;;;;;;;;;23.60;70.30;;;;;;4990049;28;95627;-51
2022/01/15 06:31:19;;;;;;;;;;;23.60;68.50;;;;;;4983047;28;96064;-54
2022/01/15 06:33:49;;;;;;;;;;;23.60;70.90;;;;;;4987394;28;96496;-53
2022/01/15 06:36:19;;;;;;;;;;;23.60;70.30;;;;;;4989310;28;96285;-49
2022/01/15 06:38:49;;;;;;;;;;;23.70;70.30;;;;;;4989511;28;95924;-50
2022/01/15 06:41:24;;;;;;;;;;;23.70;70.30;;;;;;4991302;28;96040;-54
2022/01/15 06:43:54;;;;;;;;;;;23.70;70.30;;;;;;4992466;28;96070;-54
2022/01/15 06:46:25;;;;;;;;;;;23.70;69.80;;;;;;4993128;28;98248;-52
2022/01/15 06:48:54;;;;;;;;;;;23.70;70.20;;;;;;4990348;28;95765;-62
2022/01/15 06:51:25;;;;;;;;;;;23.60;70.20;;;;;;4992254;28;95840;-50
2022/01/15 06:53:56;;;;;;;;;;;23.70;70.40;;;;;;4993643;28;96378;-51
2022/01/15 06:56:27;;;;;;;;;;;23.70;70.30;;;;;;4972502;28;95625;-61
2022/01/15 06:58:59;;;;;;;;;;;23.70;70.40;;;;;;4988648;28;95726;-53
2022/01/15 07:01:29;;;;;;;;;;;23.70;70.40;;;;;;4984781;28;96827;-62
2022/01/15 07:03:59;;;;;;;;;;;23.70;70.40;;;;;;4989738;28;95917;-52
2022/01/15 07:06:29;;;;;;;;;;;23.70;70.50;;;;;;4987131;28;95821;-50
2022/01/15 07:08:59;;;;;;;;;;;23.70;70.60;;;;;;4986732;28;98396;-50
2022/01/15 07:11:30;;;;;;;;;;;23.70;70.70;;;;;;4988922;28;95838;-51
2022/01/15 07:14:01;;;;;;;;;;;23.70;70.70;;;;;;4988199;28;96521;-49
2022/01/15 07:16:31;;;;;;;;;;;23.70;70.60;;;;;;4981060;28;95906;-52
2022/01/15 07:19:03;;;;;;;;;;;23.80;70.70;;;;;;4995424;28;95587;-48
2022/01/15 07:21:34;;;;;;;;;;;23.80;70.60;;;;;;4988541;28;96663;-61
2022/01/15 07:24:06;;;;;;;;;;;23.80;70.60;;;;;;4986666;28;96904;-52
2022/01/15 07:26:36;;;;;;;;;;;23.80;70.60;;;;;;4987979;28;95725;-62
2022/01/15 07:29:13;;;;;;;;;;;23.90;70.60;;;;;;4988669;28;95665;-51
2022/01/15 07:31:46;;;;;;;;;;;23.80;70.60;;;;;;4980991;28;96006;-49
2022/01/15 07:34:16;;;;;;;;;;;23.90;69.00;;;;;;5000778;28;96034;-49
2022/01/15 07:36:50;;;;;;;;;;;23.90;70.70;;;;;;4984592;28;96860;-62
2022/01/15 07:39:20;;;;;;;;;;;23.90;70.70;;;;;;4988106;28;95293;-62
2022/01/15 07:41:49;;;;;;;;;;;23.90;70.70;;;;;;4987877;28;95535;-49
2022/01/15 07:44:19;;;;;;;;;;;23.90;70.70;;;;;;4993354;28;96315;-51
2022/01/15 07:46:50;;;;;;;;;;;23.90;70.70;;;;;;4962760;28;98906;-51
2022/01/15 07:49:20;;;;;;;;;;;23.90;70.70;;;;;;4987685;28;95779;-49
2022/01/15 07:51:51;;;;;;;;;;;23.90;70.80;;;;;;4990009;28;95488;-51
2022/01/15 07:54:22;;;;;;;;;;;23.80;70.70;;;;;;4990377;28;96159;-53
2022/01/15 07:56:55;;;;;;;;;;;23.90;70.80;;;;;;4987423;28;95821;-51
2022/01/15 07:59:28;;;;;;;;;;;23.90;70.80;;;;;;4987776;28;95911;-52
2022/01/15 08:01:59;;;;;;;;;;;23.90;70.70;;;;;;4988215;28;97913;-62
2022/01/15 08:04:29;;;;;;;;;;;23.90;70.70;;;;;;4987792;28;96308;-52
2022/01/15 08:07:00;;;;;;;;;;;23.90;70.70;;;;;;4987644;28;95910;-53
2022/01/15 08:09:29;;;;;;;;;;;23.90;70.70;;;;;;4989988;28;96209;-49
2022/01/15 08:11:58;;;;;;;;;;;24.00;70.70;;;;;;4988064;28;97213;-50
2022/01/15 08:14:28;;;;;;;;;;;23.90;70.70;;;;;;4986277;28;96730;-48
2022/01/15 08:16:57;;;;;;;;;;;23.90;70.70;;;;;;4994791;28;95875;-53
2022/01/15 08:19:27;;;;;;;;;;;23.90;70.80;;;;;;4971158;28;96709;-51
2022/01/15 08:21:58;;;;;;;;;;;23.90;70.60;;;;;;4991574;28;95303;-51
2022/01/15 08:24:28;;;;;;;;;;;23.90;70.80;;;;;;4972763;28;96293;-59
2022/01/15 08:26:59;;;;;;;;;;;23.80;70.80;;;;;;4991111;28;96436;-53
2022/01/15 08:29:28;;;;;;;;;;;23.80;70.70;;;;;;4972878;28;95386;-49
2022/01/15 08:31:58;;;;;;;;;;;23.80;70.70;;;;;;4963487;28;96803;-49
2022/01/15 08:34:27;;;;;;;;;;;23.80;70.80;;;;;;4995943;28;96119;-56
2022/01/15 08:36:56;;;;;;;;;;;23.80;70.80;;;;;;4995180;28;95811;-53
2022/01/15 08:39:26;;;;;;;;;;;23.80;70.90;;;;;;4995830;28;95691;-49
2022/01/15 08:41:55;;;;;;;;;;;23.80;70.90;;;;;;4991733;28;95903;-48
2022/01/15 08:44:25;;;;;;;;;;;23.80;71.00;;;;;;4992002;28;96337;-50
2022/01/15 08:46:56;;;;;;;;;;;23.80;71.00;;;;;;4981997;28;98116;-50
2022/01/15 08:49:26;;;;;;;;;;;23.70;71.00;;;;;;4991116;28;95822;-50
2022/01/15 08:51:57;;;;;;;;;;;23.70;71.00;;;;;;4971892;28;95838;-51
2022/01/15 08:54:27;;;;;;;;;;;23.70;71.10;;;;;;4993615;28;95938;-54
2022/01/15 08:56:58;;;;;;;;;;;23.70;71.20;;;;;;4999173;28;96069;-54
2022/01/15 08:59:29;;;;;;;;;;;23.70;71.20;;;;;;4995777;28;95316;-61
2022/01/15 09:02:00;;;;;;;;;;;23.70;71.80;;;;;;4984573;28;95603;-62
2022/01/15 09:04:30;;;;;;;;;;;23.70;71.20;;;;;;4988731;28;96049;-62
2022/01/15 09:07:00;;;;;;;;;;;23.70;71.20;;;;;;4988117;28;95484;-53
2022/01/15 09:09:30;;;;;;;;;;;23.70;71.20;;;;;;4986887;28;95842;-53
2022/01/15 09:12:00;;;;;;;;;;;23.60;71.20;;;;;;4992576;28;95389;-51
2022/01/15 09:14:29;;;;;;;;;;;23.60;71.20;;;;;;4990154;28;96809;-54
2022/01/15 09:16:59;;;;;;;;;;;23.60;71.20;;;;;;4982658;28;96203;-53
2022/01/15 09:19:30;;;;;;;;;;;23.60;71.20;;;;;;4988225;28;96210;-51
2022/01/15 09:22:06;;;;;;;;;;;23.60;71.20;;;;;;4989258;28;96463;-51
2022/01/15 09:24:38;;;;;;;;;;;23.60;71.20;;;;;;4993491;28;96077;-62
2022/01/15 09:30:12;;;;;;;;;;;23.50;71.30;;;;;;4992543;28;95904;-54
2022/01/15 09:32:45;;;;;;;;;;;23.50;71.30;;;;;;4997604;28;95211;-50
2022/01/15 09:35:17;;;;;;;;;;;23.50;71.40;;;;;;4993845;28;97031;-50
2022/01/15 09:37:49;;;;;;;;;;;23.50;71.50;;;;;;4988342;28;95751;-53
2022/01/15 09:40:20;;;;;;;;;;;23.40;71.50;;;;;;4992806;28;96209;-62
2022/01/15 09:42:51;;;;;;;;;;;23.40;71.50;;;;;;4992233;28;95293;-62
2022/01/15 09:45:22;;;;;;;;;;;23.40;71.40;;;;;;4981963;28;98159;-52
2022/01/15 09:47:58;;;;;;;;;;;23.40;69.60;;;;;;4989658;28;95901;-50
2022/01/15 09:50:31;;;;;;;;;;;23.40;71.40;;;;;;4988773;28;95681;-51
2022/01/15 09:53:01;;;;;;;;;;;23.40;71.40;;;;;;4989059;28;95302;-51
2022/01/15 09:55:32;;;;;;;;;;;23.40;71.40;;;;;;4987373;28;97013;-50
2022/01/15 09:58:04;;;;;;;;;;;23.40;71.50;;;;;;5004420;28;97039;-56
2022/01/15 10:00:35;;;;;;;;;;;23.30;71.40;;;;;;4983416;28;98304;-49
2022/01/15 10:03:06;;;;;;;;;;;23.30;71.40;;;;;;4990580;28;95925;-53
2022/01/15 10:05:36;;;;;;;;;;;23.20;71.40;;;;;;4988944;28;97036;-55
2022/01/15 10:08:12;;;;;;;;;;;23.20;71.40;;;;;;4980628;28;95980;-53
2022/01/15 10:10:53;;;;;;;;;;;23.20;71.40;;;;;;4982315;28;98455;-63
2022/01/15 10:13:24;;;;;;;;;;;23.20;71.50;;;;;;4990097;28;96262;-50
2022/01/15 10:15:57;;;;;;;;;;;23.20;71.40;;;;;;4984614;28;96166;-50
2022/01/15 10:18:29;;;;;;;;;;;23.10;71.50;;;;;;4989510;28;95721;-63
2022/01/15 10:21:10;;;;;;;;;;;23.10;72.10;;;;;;4989576;28;95800;-52
2022/01/15 10:23:50;;;;;;;;;;;23.10;71.60;;;;;;4989790;28;95611;-62
2022/01/15 10:26:22;;;;;;;;;;;23.10;71.60;;;;;;4991258;28;96890;-49
2022/01/15 10:28:53;;;;;;;;;;;23.10;71.60;;;;;;4988042;28;95919;-54
2022/01/15 10:31:24;;;;;;;;;;;23.10;69.90;;;;;;4983628;28;95991;-53
2022/01/15 10:33:54;;;;;;;;;;;23.10;71.70;;;;;;4989800;28;95779;-54
2022/01/15 10:36:25;;;;;;;;;;;23.00;71.60;;;;;;4989247;28;95942;-62
2022/01/15 10:39:12;;;;;;;;;;;23.00;71.60;;;;;;4986258;28;96008;-52
2022/01/15 10:41:44;;;;;;;;;;;23.00;71.60;;;;;;4981602;28;96106;-53
2022/01/15 10:44:29;;;;;;;;;;;23.00;71.80;;;;;;4977368;28;97027;-54
2022/01/15 10:47:03;;;;;;;;;;;23.00;71.80;;;;;;4976644;28;96480;-63
2022/01/15 10:49:35;;;;;;;;;;;23.10;70.00;;;;;;4984245;28;95854;-64
2022/01/15 10:52:11;;;;;;;;;;;23.10;71.60;;;;;;4977510;28;95833;-52
2022/01/15 10:54:52;;;;;;;;;;;23.10;71.60;;;;;;4971594;28;95684;-63
2022/01/15 10:57:30;;;;;;;;;;;23.10;71.50;;;;;;4978239;28;97136;-54
2022/01/15 11:00:00;;;;;;;;;;;23.10;71.50;;;;;;4994638;28;95824;-63
2022/01/15 11:02:32;;;;;;;;;;;23.20;72.00;;;;;;4974433;28;96698;-54
2022/01/15 11:05:19;;;;;;;;;;;23.10;71.20;;;;;;4978102;28;97439;-63
2022/01/15 11:07:49;;;;;;;;;;;23.20;71.20;;;;;;4982480;28;96893;-57
2022/01/15 11:10:20;;;;;;;;;;;23.20;69.30;;;;;;4980843;28;99860;-56
2022/01/15 11:12:50;;;;;;;;;;;21.60;68.00;;;;;;4982422;28;96022;-55
2022/01/15 11:15:19;;;;;;;;;;;20.80;71.40;;;;;;4974302;28;96774;-57
2022/01/15 11:17:49;;;;;;;;;;;20.20;73.20;;;;;;4981551;28;102688;-56
2022/01/15 11:20:22;;;;;;;;;;;19.70;75.90;;;;;;4982709;28;95644;-58
2022/01/15 11:22:54;;;;;;;;;;;19.60;77.40;;;;;;4985420;28;95949;-56
2022/01/15 11:25:25;;;;;;;;;;;19.40;77.30;;;;;;4984035;28;97389;-63
2022/01/15 11:27:55;;;;;;;;;;;19.20;78.50;;;;;;4983835;28;96019;-56
2022/01/15 11:30:25;;;;;;;;;;;19.10;78.90;;;;;;4975235;28;96436;-55
2022/01/15 11:32:56;;;;;;;;;;;19.00;77.50;;;;;;4983908;28;95914;-58
2022/01/15 11:35:37;;;;;;;;;;;18.90;80.70;;;;;;4980832;28;96607;-57
2022/01/15 11:38:08;;;;;;;;;;;18.80;80.70;;;;;;4982959;28;96537;-58
2022/01/15 11:40:46;;;;;;;;;;;18.70;81.70;;;;;;4966068;28;96509;-56
2022/01/15 11:43:26;;;;;;;;;;;18.70;81.30;;;;;;4965415;28;95853;-63
2022/01/15 11:45:58;;;;;;;;;;;18.60;80.90;;;;;;4976944;28;96212;-63
2022/01/15 11:48:29;;;;;;;;;;;18.70;82.00;;;;;;4984728;28;96437;-63
2022/01/15 11:51:18;;;;;;;;;;;18.70;81.30;;;;;;4982609;28;96361;-63
2022/01/15 11:53:54;;;;;;;;;;;18.70;81.40;;;;;;4985978;28;95868;-63
2022/01/15 11:56:25;;;;;;;;;;;18.60;82.20;;;;;;4985392;28;98590;-57
2022/01/15 11:58:58;;;;;;;;;;;18.60;81.80;;;;;;4983508;28;96653;-63
2022/01/15 12:01:37;;;;;;;;;;;18.50;82.40;;;;;;4979663;28;95417;-56
2022/01/15 12:04:25;;;;;;;;;;;18.50;82.70;;;;;;4988913;28;95612;-57
2022/01/15 12:07:07;;;;;;;;;;;18.80;84.20;;;;;;4989720;28;95762;-58
2022/01/15 12:09:40;;;;;;;;;;;19.40;83.10;;;;;;4970821;28;97396;-63
2022/01/15 12:12:34;;;;;;;;;;;19.80;81.20;;;;;;4999506;28;95718;-56
2022/01/15 12:15:05;;;;;;;;;;;20.00;80.60;;;;;;4991741;28;97024;-55
2022/01/15 12:17:40;;;;;;;;;;;20.40;79.20;;;;;;4983593;28;97948;-55
2022/01/15 12:20:25;;;;;;;;;;;20.50;78.10;;;;;;5000501;28;96871;-56
2022/01/15 12:22:56;;;;;;;;;;;20.60;77.40;;;;;;4990910;28;96195;-57
2022/01/15 12:25:28;;;;;;;;;;;20.70;77.30;;;;;;4972085;28;95864;-57
2022/01/15 12:27:57;;;;;;;;;;;20.70;76.40;;;;;;4989435;28;95867;-55
2022/01/15 12:30:28;;;;;;;;;;;20.70;76.80;;;;;;4964131;28;98172;-54
2022/01/15 12:33:02;;;;;;;;;;;20.80;74.20;;;;;;4969394;28;95951;-58
2022/01/15 12:35:56;;;;;;;;;;;20.80;76.20;;;;;;4971217;28;95867;-58
2022/01/15 12:38:29;;;;;;;;;;;20.80;76.20;;;;;;4991076;28;95950;-52
2022/01/15 12:41:04;;;;;;;;;;;20.90;75.60;;;;;;5001698;28;96174;-55
2022/01/15 12:43:35;;;;;;;;;;;21.00;75.80;;;;;;4986515;28;96006;-57
2022/01/15 12:46:15;;;;;;;;;;;21.10;75.60;;;;;;4982204;28;96146;-59
2022/01/15 12:48:46;;;;;;;;;;;21.20;75.00;;;;;;4999867;28;96216;-56
2022/01/15 12:51:22;;;;;;;;;;;21.30;74.10;;;;;;4969173;28;96634;-55
2022/01/15 12:53:55;;;;;;;;;;;21.20;74.20;;;;;;4988999;28;95586;-55
2022/01/15 12:56:29;;;;;;;;;;;21.20;74.30;;;;;;4989632;28;95774;-62
2022/01/15 12:59:04;;;;;;;;;;;20.90;74.70;;;;;;4967361;28;95859;-51
2022/01/15 13:01:37;;;;;;;;;;;21.20;74.70;;;;;;4981481;28;96881;-57
2022/01/15 13:04:11;;;;;;;;;;;21.40;74.10;;;;;;4988383;28;96042;-53
2022/01/15 13:06:42;;;;;;;;;;;21.40;73.40;;;;;;4998300;28;95876;-53
2022/01/15 13:09:15;;;;;;;;;;;21.40;73.20;;;;;;4976860;28;95869;-55
2022/01/15 13:11:56;;;;;;;;;;;21.40;73.20;;;;;;4996342;28;96849;-54
2022/01/15 13:14:35;;;;;;;;;;;21.40;73.30;;;;;;4986935;28;95308;-54
2022/01/15 13:17:19;;;;;;;;;;;21.40;73.30;;;;;;4979903;28;97030;-55
2022/01/15 13:19:49;;;;;;;;;;;21.50;73.50;;;;;;4989381;28;97724;-55
2022/01/15 13:22:22;;;;;;;;;;;21.40;72.50;;;;;;4971176;28;98288;-56
2022/01/15 13:25:08;;;;;;;;;;;21.10;73.30;;;;;;4989370;28;95667;-56
2022/01/15 13:27:37;;;;;;;;;;;20.80;73.10;;;;;;4971691;28;96673;-58
2022/01/15 13:30:06;;;;;;;;;;;20.40;74.90;;;;;;4990450;28;96987;-61
2022/01/15 13:32:36;;;;;;;;;;;20.50;75.20;;;;;;4989187;28;96664;-57
2022/01/15 13:35:12;;;;;;;;;;;20.50;75.60;;;;;;4990122;28;97068;-62
2022/01/15 13:37:51;;;;;;;;;;;20.10;75.50;;;;;;4990262;28;95902;-57
2022/01/15 13:40:31;;;;;;;;;;;20.10;76.60;;;;;;4991589;28;95871;-56
2022/01/15 13:43:01;;;;;;;;;;;20.20;76.10;;;;;;4986695;28;97848;-57
2022/01/15 13:45:39;;;;;;;;;;;20.20;75.70;;;;;;4995616;28;96024;-54
2022/01/15 13:48:11;;;;;;;;;;;20.10;76.10;;;;;;4980712;28;97039;-58
2022/01/15 13:53:41;;;;;;;;;;;19.70;76.30;;;;;;4988856;28;96378;-59
2022/01/15 13:56:19;;;;;;;;;;;19.40;77.00;;;;;;4969220;28;97819;-60
2022/01/15 13:58:52;;;;;;;;;;;19.10;77.70;;;;;;4988178;28;95991;-62
2022/01/15 14:01:23;;;;;;;;;;;19.00;77.50;;;;;;4962212;28;95623;-56
2022/01/15 14:03:56;;;;;;;;;;;19.20;79.80;;;;;;4987728;28;96047;-56
2022/01/15 14:06:27;;;;;;;;;;;19.60;79.30;;;;;;4997795;28;96066;-57
2022/01/15 14:09:00;;;;;;;;;;;19.60;78.20;;;;;;4981404;28;95902;-53
2022/01/15 14:11:30;;;;;;;;;;;19.60;78.10;;;;;;4984321;28;96693;-58
2022/01/15 14:14:06;;;;;;;;;;;19.70;77.30;;;;;;4990593;28;96084;-61
2022/01/15 14:16:41;;;;;;;;;;;19.60;78.20;;;;;;4947932;28;97082;-60
2022/01/15 14:19:27;;;;;;;;;;;19.50;78.10;;;;;;4990119;28;95669;-59
2022/01/15 14:21:57;;;;;;;;;;;19.40;78.20;;;;;;4969902;28;95304;-58
2022/01/15 14:24:27;;;;;;;;;;;19.30;79.10;;;;;;4988419;28;95818;-56
2022/01/15 14:26:58;;;;;;;;;;;19.50;79.90;;;;;;4988701;28;96087;-59
2022/01/15 14:29:28;;;;;;;;;;;19.60;79.30;;;;;;4988608;28;95653;-58
2022/01/15 14:31:59;;;;;;;;;;;19.90;78.70;;;;;;4991985;28;96002;-58
2022/01/15 14:34:29;;;;;;;;;;;20.00;77.80;;;;;;4988345;28;96373;-59
2022/01/15 14:37:00;;;;;;;;;;;20.00;77.30;;;;;;5002811;28;96393;-56
2022/01/15 14:39:31;;;;;;;;;;;19.90;77.40;;;;;;4985663;28;96135;-59
2022/01/15 14:42:02;;;;;;;;;;;19.70;78.10;;;;;;4979469;28;95934;-59
2022/01/15 14:44:32;;;;;;;;;;;19.50;78.10;;;;;;4969825;28;97200;-58
2022/01/15 14:47:04;;;;;;;;;;;19.30;79.10;;;;;;4982012;28;95779;-57
2022/01/15 14:49:34;;;;;;;;;;;19.60;79.40;;;;;;4989235;28;95957;-64
2022/01/15 14:52:05;;;;;;;;;;;19.60;78.90;;;;;;4989513;28;96566;-58
2022/01/15 14:54:36;;;;;;;;;;;19.40;79.10;;;;;;4987549;28;96213;-66
2022/01/15 14:57:06;;;;;;;;;;;19.30;80.10;;;;;;4967235;28;96531;-56
2022/01/15 14:59:36;;;;;;;;;;;19.20;80.70;;;;;;5001842;28;96432;-59
2022/01/15 15:02:07;;;;;;;;;;;19.50;82.90;;;;;;4980974;28;98185;-56
2022/01/15 15:04:39;;;;;;;;;;;20.40;80.40;;;;;;4984266;28;96701;-59
2022/01/15 15:07:09;;;;;;;;;;;20.70;77.10;;;;;;4975203;28;96074;-56
2022/01/15 15:09:40;;;;;;;;;;;20.60;76.40;;;;;;4979276;28;95985;-62
2022/01/15 15:12:10;;;;;;;;;;;20.40;76.40;;;;;;4976459;28;96729;-57
2022/01/15 15:14:40;;;;;;;;;;;20.30;77.60;;;;;;4963678;28;97871;-53
2022/01/15 15:17:10;;;;;;;;;;;20.40;76.90;;;;;;4972107;28;96354;-53
2022/01/15 15:19:41;;;;;;;;;;;20.10;76.90;;;;;;4985261;28;95700;-55
2022/01/15 15:22:12;;;;;;;;;;;20.20;77.10;;;;;;4998464;28;95827;-53
2022/01/15 15:24:43;;;;;;;;;;;20.10;77.00;;;;;;4984912;28;97199;-62
2022/01/15 15:27:16;;;;;;;;;;;20.00;77.20;;;;;;4983325;28;95694;-60